createdAt,value
2024-01-15T00:02:18.587Z,94.97
2024-01-15T00:04:45.174Z,94.70
2024-01-15T00:07:11.832Z,94.64
2024-01-15T00:09:38.479Z,94.87
2024-01-15T00:12:05.576Z,94.63
2024-01-15T00:14:32.102Z,93.93
2024-01-15T00:16:58.657Z,94.13
2024-01-15T00:19:25.462Z,93.70
2024-01-15T00:21:52.130Z,93.73
2024-01-15T00:24:18.723Z,94.42
2024-01-15T00:26:45.291Z,94.41
2024-01-15T00:29:11.763Z,94.88
2024-01-15T00:31:38.474Z,94.32
2024-01-15T00:34:05.172Z,94.29
2024-01-15T00:36:31.728Z,94.01
2024-01-15T00:38:58.220Z,93.47
2024-01-15T00:41:24.698Z,93.62
2024-01-15T00:43:51.200Z,93.85
2024-01-15T00:46:18.358Z,93.31
2024-01-15T00:48:45.254Z,93.08
2024-01-15T00:51:13.036Z,92.91
2024-01-15T00:53:39.809Z,92.98
2024-01-15T00:56:06.388Z,93.32
2024-01-15T00:58:33.060Z,93.14
2024-01-15T01:00:59.553Z,93.03
2024-01-15T01:03:26.143Z,92.97
2024-01-15T01:05:52.792Z,92.63
2024-01-15T01:08:19.336Z,92.67
2024-01-15T01:10:45.845Z,92.54
2024-01-15T01:13:12.389Z,92.38
2024-01-15T01:15:39.854Z,92.61
2024-01-15T01:18:06.708Z,92.55
2024-01-15T01:20:33.526Z,92.31
2024-01-15T01:23:00.747Z,92.66
2024-01-15T01:25:27.310Z,92.39
2024-01-15T01:27:53.805Z,92.47
2024-01-15T01:30:20.490Z,92.46
2024-01-15T01:32:47.038Z,92.92
2024-01-15T01:35:13.921Z,92.62
2024-01-15T01:37:40.372Z,92.62
2024-01-15T01:40:07.550Z,92.33
2024-01-15T01:42:34.089Z,92.44
2024-01-15T01:45:01.402Z,92.27
2024-01-15T01:47:28.024Z,92.47
2024-01-15T01:49:55.179Z,92.39
2024-01-15T01:52:21.921Z,92.64
2024-01-15T01:54:48.962Z,92.46
2024-01-15T01:57:16.369Z,92.39
2024-01-15T01:59:42.957Z,92.42
2024-01-15T02:02:09.498Z,92.37
2024-01-15T02:04:38.070Z,92.49
2024-01-15T02:07:05.515Z,92.29
2024-01-15T02:09:33.263Z,92.39
2024-01-15T02:12:00.214Z,92.08
2024-01-15T02:14:27.057Z,92.30
2024-01-15T02:16:53.716Z,91.96
2024-01-15T02:19:20.414Z,92.16
2024-01-15T02:21:47.268Z,92.28
2024-01-15T02:24:14.185Z,91.68
2024-01-15T02:26:41.006Z,91.70
2024-01-15T02:29:11.399Z,91.58
2024-01-15T02:31:38.496Z,91.79
2024-01-15T02:34:05.857Z,91.48
2024-01-15T02:36:32.525Z,91.84
2024-01-15T02:38:58.980Z,91.69
2024-01-15T02:41:25.610Z,91.29
2024-01-15T02:43:52.118Z,91.29
2024-01-15T02:46:18.628Z,91.03
2024-01-15T02:48:45.578Z,91.33
2024-01-15T02:51:12.240Z,90.82
2024-01-15T02:53:40.317Z,90.62
2024-01-15T02:56:08.969Z,90.52
2024-01-15T02:58:35.403Z,90.81
2024-01-15T03:01:02.208Z,90.32
2024-01-15T03:03:29.380Z,90.52
2024-01-15T03:05:56.226Z,90.57
2024-01-15T03:08:24.167Z,90.19
2024-01-15T03:10:50.837Z,90.74
2024-01-15T03:13:17.361Z,90.24
2024-01-15T03:15:44.667Z,90.03
2024-01-15T03:18:11.460Z,89.73
2024-01-15T03:20:40.561Z,89.50
2024-01-15T03:23:07.044Z,89.96
2024-01-15T03:25:33.666Z,89.22
2024-01-15T03:28:00.170Z,89.52
2024-01-15T03:30:26.675Z,90.43
2024-01-15T03:32:53.267Z,89.73
2024-01-15T03:35:19.856Z,90.10
2024-01-15T03:37:46.297Z,89.82
2024-01-15T03:40:13.938Z,90.56
2024-01-15T03:42:40.519Z,90.41
2024-01-15T03:45:07.328Z,89.85
2024-01-15T03:47:33.955Z,90.51
2024-01-15T03:50:00.519Z,90.16
2024-01-15T03:52:27.004Z,90.24
2024-01-15T03:54:53.589Z,90.40
2024-01-15T03:57:20.133Z,90.43
2024-01-15T03:59:48.336Z,90.95
2024-01-15T04:02:15.483Z,90.87
2024-01-15T04:04:43.553Z,91.40
2024-01-15T04:07:13.245Z,90.58
2024-01-15T04:09:39.797Z,90.36
2024-01-15T04:12:06.432Z,90.29
2024-01-15T04:14:33.257Z,89.55
2024-01-15T04:16:59.711Z,90.38
2024-01-15T04:19:26.225Z,89.33
2024-01-15T04:21:52.891Z,89.12
2024-01-15T04:24:19.474Z,89.28
2024-01-15T04:26:46.817Z,88.54
2024-01-15T04:29:13.584Z,88.93
2024-01-15T04:31:40.392Z,87.94
2024-01-15T04:34:07.116Z,88.19
2024-01-15T04:36:40.300Z,87.86
2024-01-15T04:39:07.180Z,87.77
2024-01-15T04:41:33.828Z,87.89
2024-01-15T04:44:02.237Z,87.07
2024-01-15T04:46:28.690Z,86.74
2024-01-15T04:48:55.262Z,86.77
2024-01-15T04:51:21.826Z,86.62
2024-01-15T04:53:48.302Z,85.91
2024-01-15T04:56:14.764Z,86.08
2024-01-15T04:58:41.231Z,85.33
2024-01-15T05:01:09.502Z,84.45
2024-01-15T05:03:36.209Z,83.87
2024-01-15T05:06:02.827Z,83.86
2024-01-15T05:08:29.406Z,83.42
2024-01-15T05:10:55.829Z,83.54
2024-01-15T05:13:22.466Z,83.96
2024-01-15T05:15:48.994Z,83.02
2024-01-15T05:18:15.604Z,81.96
2024-01-15T05:20:42.137Z,81.65
2024-01-15T05:23:08.874Z,81.50
2024-01-15T05:25:35.288Z,81.60
2024-01-15T05:28:02.571Z,81.64
2024-01-15T05:30:29.197Z,81.69
2024-01-15T05:32:55.857Z,82.07
2024-01-15T05:35:22.367Z,80.89
2024-01-15T05:37:49.395Z,80.53
2024-01-15T05:40:15.946Z,80.59
2024-01-15T05:42:42.920Z,80.32
2024-01-15T05:45:09.975Z,79.63
2024-01-15T05:47:36.690Z,80.04
2024-01-15T05:50:03.707Z,80.22
2024-01-15T05:52:30.471Z,80.22
2024-01-15T05:54:57.549Z,80.13
2024-01-15T05:57:24.180Z,80.51
2024-01-15T05:59:50.764Z,79.95
2024-01-15T06:02:17.300Z,80.21
2024-01-15T06:04:43.879Z,80.46
2024-01-15T06:07:10.453Z,79.94
2024-01-15T06:09:36.966Z,79.99
2024-01-15T06:12:03.624Z,79.52
2024-01-15T06:14:30.065Z,79.23
2024-01-15T06:16:56.502Z,80.01
2024-01-15T06:19:23.032Z,79.34
2024-01-15T06:21:49.706Z,79.37
2024-01-15T06:24:16.824Z,78.74
2024-01-15T06:26:43.306Z,79.28
2024-01-15T06:29:09.777Z,79.55
2024-01-15T06:31:36.325Z,79.68
2024-01-15T06:34:03.026Z,79.43
2024-01-15T06:36:29.652Z,78.86
2024-01-15T06:38:57.003Z,79.81
2024-01-15T06:41:23.437Z,79.99
2024-01-15T06:43:49.957Z,79.20
2024-01-15T06:46:23.053Z,78.99
2024-01-15T06:48:50.262Z,79.21
2024-01-15T06:51:17.669Z,79.42
2024-01-15T06:53:44.370Z,78.76
2024-01-15T06:56:10.952Z,79.08
2024-01-15T06:58:37.728Z,78.62
2024-01-15T07:01:05.957Z,78.80
2024-01-15T07:03:32.947Z,78.58
2024-01-15T07:05:59.537Z,77.98
2024-01-15T07:08:26.212Z,78.37
2024-01-15T07:10:53.055Z,78.22
2024-01-15T07:13:19.497Z,77.50
2024-01-15T07:15:46.078Z,77.21
2024-01-15T07:18:12.677Z,78.25
2024-01-15T07:20:39.262Z,77.03
2024-01-15T07:23:05.686Z,76.96
2024-01-15T07:25:32.321Z,78.06
2024-01-15T07:27:58.827Z,78.09
2024-01-15T07:30:25.450Z,78.05
2024-01-15T07:32:53.996Z,77.43
2024-01-15T07:35:20.576Z,77.76
2024-01-15T07:37:47.233Z,78.50
2024-01-15T07:40:13.880Z,78.02
2024-01-15T07:42:40.641Z,78.60
2024-01-15T07:45:07.227Z,78.17
2024-01-15T07:47:33.753Z,77.75
2024-01-15T07:50:04.139Z,78.36
2024-01-15T07:52:32.561Z,77.69
2024-01-15T07:55:00.997Z,78.52
2024-01-15T07:57:27.693Z,78.04
2024-01-15T07:59:54.198Z,78.17
2024-01-15T08:02:20.769Z,77.36
2024-01-15T08:04:47.318Z,77.61
2024-01-15T08:07:14.402Z,78.16
2024-01-15T08:09:41.042Z,77.75
2024-01-15T08:12:07.744Z,78.66
2024-01-15T08:14:34.330Z,78.37
2024-01-15T08:17:00.894Z,78.29
2024-01-15T08:19:27.573Z,78.12
2024-01-15T08:21:54.245Z,78.27
2024-01-15T08:24:20.802Z,76.89
2024-01-15T08:26:47.516Z,77.08
2024-01-15T08:29:14.046Z,77.49
2024-01-15T08:31:40.889Z,76.76
2024-01-15T08:34:07.773Z,76.67
2024-01-15T08:36:36.574Z,76.82
2024-01-15T08:39:05.050Z,77.41
2024-01-15T08:41:34.743Z,76.29
2024-01-15T08:44:01.275Z,76.43
2024-01-15T08:46:27.747Z,76.13
2024-01-15T08:48:54.244Z,76.72
2024-01-15T08:51:20.860Z,76.10
2024-01-15T08:53:47.374Z,75.19
2024-01-15T08:56:13.881Z,75.77
2024-01-15T08:58:40.334Z,75.84
2024-01-15T09:01:06.987Z,74.53
2024-01-15T09:03:35.044Z,74.13
2024-01-15T09:06:01.720Z,74.03
2024-01-15T09:08:28.819Z,74.80
2024-01-15T09:10:55.322Z,74.30
2024-01-15T09:13:21.782Z,74.16
2024-01-15T09:18:32.938Z,73.33
2024-01-15T09:20:59.926Z,73.66
2024-01-15T09:23:28.788Z,73.83
2024-01-15T09:25:55.895Z,73.48
2024-01-15T09:28:22.350Z,73.04
2024-01-15T09:30:48.865Z,74.20
2024-01-15T09:33:15.587Z,74.44
2024-01-15T09:35:42.181Z,74.89
2024-01-15T09:38:08.651Z,75.60
2024-01-15T09:40:39.502Z,75.58
2024-01-15T09:43:06.333Z,75.72
2024-01-15T09:45:33.188Z,75.21
2024-01-15T09:47:59.798Z,75.45
2024-01-15T09:50:26.288Z,74.84
2024-01-15T09:52:53.747Z,73.84
2024-01-15T09:55:20.515Z,73.54
2024-01-15T09:57:47.705Z,73.04
2024-01-15T10:00:15.902Z,71.63
2024-01-15T10:02:42.438Z,71.78
2024-01-15T10:05:09.389Z,71.67
2024-01-15T10:07:38.439Z,71.51
2024-01-15T10:10:05.384Z,70.92
2024-01-15T10:12:32.160Z,71.20
2024-01-15T10:14:58.722Z,70.08
2024-01-15T10:17:28.289Z,70.76
2024-01-15T10:19:54.958Z,69.96
2024-01-15T10:22:21.539Z,69.83
2024-01-15T10:24:48.970Z,69.47
2024-01-15T10:27:17.168Z,68.72
2024-01-15T10:29:44.105Z,69.06
2024-01-15T10:32:10.975Z,69.22
2024-01-15T10:34:42.699Z,69.25
2024-01-15T10:37:10.555Z,68.35
2024-01-15T10:39:38.060Z,67.62
2024-01-15T10:42:05.584Z,68.21
2024-01-15T10:44:32.542Z,68.18
2024-01-15T10:46:59.249Z,68.14
2024-01-15T10:49:31.901Z,68.71
2024-01-15T10:52:00.090Z,68.52
2024-01-15T10:54:28.297Z,68.41
2024-01-15T10:56:56.767Z,68.91
2024-01-15T10:59:23.835Z,68.47
2024-01-15T11:01:54.544Z,68.22
2024-01-15T11:04:22.610Z,68.31
2024-01-15T11:06:51.967Z,68.37
2024-01-15T11:09:19.681Z,67.45
2024-01-15T11:11:50.805Z,68.38
2024-01-15T11:14:44.948Z,68.46
2024-01-15T11:17:13.188Z,68.13
2024-01-15T11:19:51.630Z,67.53
2024-01-15T11:22:47.711Z,68.32
2024-01-15T11:25:15.709Z,68.95
2024-01-15T11:27:53.185Z,68.66
2024-01-15T11:30:24.100Z,68.28
2024-01-15T11:32:50.832Z,68.78
2024-01-15T11:35:17.635Z,67.89
2024-01-15T11:37:53.760Z,67.42
2024-01-15T11:40:23.803Z,68.40
2024-01-15T11:42:50.867Z,69.01
2024-01-15T11:45:20.409Z,68.13
2024-01-15T11:48:15.856Z,68.35
2024-01-15T11:50:47.097Z,68.23
2024-01-15T11:53:37.522Z,70.13
2024-01-15T11:56:13.207Z,70.85
2024-01-15T11:58:39.666Z,73.19
2024-01-15T12:01:06.295Z,75.81
2024-01-15T12:03:34.896Z,78.58
2024-01-15T12:06:01.742Z,79.38
2024-01-15T12:08:28.470Z,80.52
2024-01-15T12:10:55.143Z,83.79
2024-01-15T12:13:22.326Z,84.41
2024-01-15T12:15:49.368Z,87.12
2024-01-15T12:18:18.269Z,88.05
2024-01-15T12:20:47.920Z,90.20
2024-01-15T12:23:14.862Z,91.09
2024-01-15T12:25:41.385Z,90.46
2024-01-15T12:28:07.880Z,91.38
2024-01-15T12:30:37.026Z,91.57
2024-01-15T12:33:07.698Z,91.80
2024-01-15T12:35:35.146Z,91.16
2024-01-15T12:38:04.154Z,91.30
2024-01-15T12:40:32.890Z,91.41
2024-01-15T12:42:59.498Z,92.03
2024-01-15T12:45:26.438Z,91.11
2024-01-15T12:47:53.733Z,90.85
2024-01-15T12:50:21.135Z,91.39
2024-01-15T12:52:48.626Z,91.19
2024-01-15T12:55:16.215Z,88.83
2024-01-15T12:57:43.298Z,88.00
2024-01-15T13:00:14.375Z,88.46
2024-01-15T13:02:42.698Z,87.01
2024-01-15T13:05:14.334Z,87.00
2024-01-15T13:07:41.976Z,86.96
2024-01-15T13:10:10.096Z,87.24
2024-01-15T13:12:36.813Z,86.62
2024-01-15T13:15:04.763Z,86.88
2024-01-15T13:17:31.583Z,86.08
2024-01-15T13:19:58.508Z,86.20
2024-01-15T13:22:30.718Z,86.65
2024-01-15T13:24:57.317Z,87.96
2024-01-15T13:27:24.218Z,88.52
2024-01-15T13:29:50.853Z,90.38
2024-01-15T13:32:26.980Z,91.20
2024-01-15T13:34:53.659Z,92.16
2024-01-15T13:37:20.300Z,93.39
2024-01-15T13:39:46.808Z,94.09
2024-01-15T13:42:13.437Z,94.24
2024-01-15T13:44:39.889Z,95.29
2024-01-15T13:47:06.542Z,95.50
2024-01-15T13:49:35.126Z,95.49
2024-01-15T13:52:01.663Z,96.00
2024-01-15T13:54:41.000Z,95.71
2024-01-15T13:57:12.522Z,95.08
2024-01-15T13:59:39.319Z,95.83
2024-01-15T14:02:06.242Z,95.34
2024-01-15T14:04:32.682Z,94.93
2024-01-15T14:06:59.148Z,94.63
2024-01-15T14:09:26.468Z,94.58
2024-01-15T14:11:53.073Z,94.22
2024-01-15T14:14:19.598Z,93.13
2024-01-15T14:16:46.035Z,92.81
2024-01-15T14:19:12.714Z,93.80
2024-01-15T14:21:40.079Z,92.62
2024-01-15T14:24:07.536Z,93.52
2024-01-15T14:26:35.161Z,93.75
2024-01-15T14:29:01.676Z,93.61
2024-01-15T14:31:29.529Z,94.65
2024-01-15T14:34:00.551Z,94.88
2024-01-15T14:36:27.057Z,94.41
2024-01-15T14:38:53.612Z,95.32
2024-01-15T14:41:20.145Z,95.64
2024-01-15T14:43:46.837Z,96.65
2024-01-15T14:46:13.493Z,96.90
2024-01-15T14:48:40.097Z,97.51
2024-01-15T14:51:06.985Z,97.91
2024-01-15T14:53:33.460Z,98.58
2024-01-15T14:56:00.005Z,99.01
2024-01-15T14:58:26.524Z,100.00
2024-01-15T15:00:53.207Z,100.00
2024-01-15T15:03:20.036Z,100.00
2024-01-15T15:05:46.681Z,100.00
2024-01-15T15:08:13.832Z,100.00
2024-01-15T15:10:43.113Z,100.00
2024-01-15T15:13:11.192Z,100.00
2024-01-15T15:15:38.001Z,100.00
2024-01-15T15:18:04.741Z,99.35
2024-01-15T15:20:31.482Z,98.55
2024-01-15T15:22:58.102Z,97.77
2024-01-15T15:25:24.688Z,98.70
2024-01-15T15:27:51.224Z,99.05
2024-01-15T15:30:17.910Z,98.44
2024-01-15T15:32:44.477Z,99.46
2024-01-15T15:35:11.484Z,99.72
2024-01-15T15:37:38.241Z,99.88
2024-01-15T15:40:09.595Z,100.00
2024-01-15T15:42:36.765Z,100.00
2024-01-15T15:45:04.712Z,100.00
2024-01-15T15:47:31.548Z,100.00
2024-01-15T15:49:58.388Z,100.00
2024-01-15T15:52:25.246Z,100.00
2024-01-15T15:54:51.986Z,100.00
2024-01-15T15:57:18.547Z,100.00
2024-01-15T15:59:45.455Z,100.00
2024-01-15T16:02:12.002Z,100.00
2024-01-15T16:04:38.656Z,100.00
2024-01-15T16:07:08.967Z,99.96
2024-01-15T16:09:35.794Z,99.88
2024-01-15T16:12:02.368Z,99.19
2024-01-15T16:14:28.876Z,99.31
2024-01-15T16:23:13.622Z,99.14
2024-01-15T16:23:26.838Z,98.71
2024-01-15T16:23:42.201Z,98.39
2024-01-15T16:25:19.112Z,99.61
2024-01-15T16:27:46.182Z,98.65
2024-01-15T16:30:21.137Z,98.37
2024-01-15T16:32:56.342Z,98.52
2024-01-15T16:35:23.170Z,98.54
2024-01-15T16:37:49.805Z,98.49
2024-01-15T16:40:16.511Z,98.62
2024-01-15T16:42:43.071Z,99.44
2024-01-15T16:45:10.186Z,98.58
2024-01-15T16:47:36.729Z,99.00
2024-01-15T16:50:05.002Z,99.86
2024-01-15T16:52:31.822Z,100.00
2024-01-15T16:54:58.324Z,99.61
2024-01-15T16:57:24.824Z,100.00
2024-01-15T16:59:51.313Z,99.71
2024-01-15T17:02:18.144Z,98.84
2024-01-15T17:04:44.764Z,96.36
2024-01-15T17:07:11.493Z,96.23
2024-01-15T17:09:37.967Z,96.64
2024-01-15T17:12:05.308Z,97.05
2024-01-15T17:14:31.959Z,97.42
2024-01-15T17:17:01.018Z,97.98
2024-01-15T17:19:28.678Z,98.26
2024-01-15T17:21:55.384Z,97.76
2024-01-15T17:24:22.306Z,98.16
2024-01-15T17:26:49.996Z,97.40
2024-01-15T17:29:17.121Z,96.88
2024-01-15T17:31:43.618Z,95.93
2024-01-15T17:34:11.198Z,95.57
2024-01-15T17:36:37.923Z,94.98
2024-01-15T17:39:06.547Z,94.12
2024-01-15T17:41:34.048Z,93.71
2024-01-15T17:44:02.073Z,93.61
2024-01-15T17:46:30.122Z,92.70
2024-01-15T17:49:03.687Z,92.82
2024-01-15T17:51:34.288Z,91.48
2024-01-15T17:54:01.464Z,91.41
2024-01-15T17:56:28.511Z,89.71
2024-01-15T17:58:55.825Z,89.25
2024-01-15T18:01:23.054Z,90.00
2024-01-15T18:03:49.618Z,89.31
2024-01-15T18:06:17.060Z,88.56
2024-01-15T18:08:43.564Z,88.71
2024-01-15T18:11:19.257Z,89.20
2024-01-15T18:13:46.714Z,88.82
2024-01-15T18:16:13.638Z,88.96
2024-01-15T18:18:40.293Z,88.94
2024-01-15T18:21:06.793Z,89.77
2024-01-15T18:23:34.683Z,89.35
2024-01-15T18:26:01.389Z,90.43
2024-01-15T18:28:29.961Z,90.41
2024-01-15T18:30:56.417Z,89.46
2024-01-15T18:33:24.336Z,89.32
2024-01-15T18:35:51.287Z,89.32
2024-01-15T18:38:18.128Z,88.82
2024-01-15T18:40:44.724Z,89.10
2024-01-15T18:43:11.305Z,88.92
2024-01-15T18:45:37.813Z,88.74
2024-01-15T18:48:04.630Z,88.62
2024-01-15T18:50:31.215Z,88.84
2024-01-15T18:52:57.833Z,88.66
2024-01-15T18:55:24.694Z,87.85
2024-01-15T18:57:52.002Z,88.25
2024-01-15T19:00:20.118Z,88.50
2024-01-15T19:02:46.677Z,88.50
2024-01-15T19:05:13.522Z,87.97
2024-01-15T19:07:40.143Z,87.52
2024-01-15T19:10:08.234Z,88.37
2024-01-15T19:12:34.773Z,88.54
2024-01-15T19:15:01.335Z,88.34
2024-01-15T19:17:27.917Z,87.69
2024-01-15T19:19:54.469Z,88.04
2024-01-15T19:22:21.094Z,87.11
2024-01-15T19:24:47.804Z,87.21
2024-01-15T19:27:14.615Z,86.36
2024-01-15T19:29:41.264Z,86.51
2024-01-15T19:32:07.920Z,86.78
2024-01-15T19:34:34.529Z,86.57
2024-01-15T19:37:01.087Z,85.91
2024-01-15T19:39:29.371Z,85.73
2024-01-15T19:41:56.754Z,86.18
2024-01-15T19:44:23.438Z,85.87
2024-01-15T19:46:49.890Z,84.79
2024-01-15T19:49:16.984Z,84.55
2024-01-15T19:51:44.491Z,84.82
2024-01-15T19:54:11.560Z,85.10
2024-01-15T19:56:39.104Z,84.79
2024-01-15T19:59:06.752Z,84.98
2024-01-15T20:01:33.612Z,84.02
2024-01-15T20:04:00.135Z,84.17
2024-01-15T20:06:26.768Z,84.47
2024-01-15T20:08:55.366Z,83.87
2024-01-15T20:11:21.975Z,84.19
2024-01-15T20:13:49.502Z,83.38
2024-01-15T20:16:16.831Z,82.42
2024-01-15T20:18:43.735Z,82.65
2024-01-15T20:21:11.165Z,82.17
2024-01-15T20:23:46.537Z,82.77
2024-01-15T20:26:21.483Z,82.60
2024-01-15T20:28:48.348Z,82.03
2024-01-15T20:31:14.984Z,81.99
2024-01-15T20:33:41.788Z,81.86
2024-01-15T20:36:13.364Z,80.71
2024-01-15T20:38:40.710Z,80.56
2024-01-15T20:41:07.736Z,80.89
2024-01-15T20:43:35.104Z,80.42
2024-01-15T20:46:02.564Z,79.63
2024-01-15T20:48:29.474Z,79.19
2024-01-15T20:50:56.030Z,79.20
2024-01-15T20:53:23.277Z,78.53
2024-01-15T20:55:49.771Z,78.29
2024-01-15T20:58:24.250Z,79.13
2024-01-15T21:00:51.099Z,78.53
2024-01-15T21:03:18.764Z,78.77
2024-01-15T21:05:45.529Z,78.14
2024-01-15T21:08:12.132Z,78.41
2024-01-15T21:10:38.663Z,78.61
2024-01-15T21:13:05.358Z,79.36
2024-01-15T21:15:31.870Z,78.18
2024-01-15T21:17:58.476Z,78.65
2024-01-15T21:20:25.056Z,78.88
2024-01-15T21:22:51.556Z,78.24
2024-01-15T21:25:18.080Z,78.34
2024-01-15T21:27:47.110Z,78.74
2024-01-15T21:30:17.528Z,78.67
2024-01-15T21:32:44.532Z,78.47
2024-01-15T21:35:13.171Z,78.61
2024-01-15T21:37:44.231Z,78.75
2024-01-15T21:40:11.453Z,77.63
2024-01-15T21:42:38.717Z,77.54
2024-01-15T21:45:09.595Z,78.43
2024-01-15T21:47:38.130Z,77.85
2024-01-15T21:50:10.012Z,77.73
2024-01-15T21:52:36.621Z,77.68
2024-01-15T21:55:03.450Z,77.13
2024-01-15T21:57:30.011Z,77.49
2024-01-15T21:59:56.563Z,77.68
2024-01-15T22:02:23.616Z,77.41
2024-01-15T22:04:50.104Z,77.66
2024-01-15T22:07:17.130Z,77.60
2024-01-15T22:09:43.577Z,77.33
2024-01-15T22:12:10.167Z,77.31
2024-01-15T22:14:36.873Z,77.35
2024-01-15T22:17:03.479Z,77.64
2024-01-15T22:19:30.076Z,77.92
2024-01-15T22:21:56.549Z,77.51
2024-01-15T22:24:23.053Z,76.93
2024-01-15T22:26:49.960Z,77.13
2024-01-15T22:29:16.586Z,77.41
2024-01-15T22:31:43.118Z,77.11
2024-01-15T22:34:10.097Z,77.14
2024-01-15T22:36:36.633Z,77.70
2024-01-15T22:39:03.180Z,77.75
2024-01-15T22:41:30.838Z,77.92
2024-01-15T22:43:57.382Z,77.60
2024-01-15T22:46:24.079Z,77.34
2024-01-15T22:48:50.723Z,77.51
2024-01-15T22:51:17.243Z,77.71
2024-01-15T22:53:43.908Z,78.16
2024-01-15T22:56:10.458Z,77.66
2024-01-15T22:58:36.961Z,78.07
2024-01-15T23:01:03.977Z,77.85
2024-01-15T23:03:30.949Z,77.24
2024-01-15T23:05:57.690Z,78.46
2024-01-15T23:08:24.309Z,78.34
2024-01-15T23:10:50.893Z,77.91
2024-01-15T23:13:17.832Z,78.34
2024-01-15T23:15:44.423Z,78.03
2024-01-15T23:18:12.458Z,78.64
2024-01-15T23:20:39.283Z,78.56
2024-01-15T23:23:05.967Z,79.08
2024-01-15T23:25:32.621Z,78.81
2024-01-15T23:27:59.169Z,78.65
2024-01-15T23:30:25.671Z,78.82
2024-01-15T23:32:53.133Z,78.67
2024-01-15T23:35:19.846Z,79.65
2024-01-15T23:37:46.371Z,78.45
2024-01-15T23:40:13.546Z,78.92
2024-01-15T23:42:40.748Z,78.77
2024-01-15T23:45:07.846Z,78.89
2024-01-15T23:47:34.578Z,78.93
2024-01-15T23:50:01.435Z,78.71
2024-01-15T23:52:28.117Z,79.21
2024-01-15T23:54:54.737Z,78.90
2024-01-15T23:57:21.257Z,79.63
2024-01-15T23:59:47.854Z,79.31
